sensor_id;sensor_type;location;lat;lon;timestamp;pressure;altitude;pressure_sealevel;temperature;humidity
71889;BME280;59762;49.998;14.858;2023-10-08T00:02:04;97342.94;;;16.38;75.92
71889;BME280;59762;49.998;14.858;2023-10-08T00:04:33;97348.53;;;16.37;76.01
71889;BME280;59762;49.998;14.858;2023-10-08T00:07:05;97342.44;;;16.28;76.60
71889;BME280;59762;49.998;14.858;2023-10-08T00:09:34;97353.63;;;16.25;76.70
71889;BME280;59762;49.998;14.858;2023-10-08T00:12:04;97334.16;;;16.30;76.42
71889;BME280;59762;49.998;14.858;2023-10-08T00:14:30;97349.94;;;16.33;76.12
71889;BME280;59762;49.998;14.858;2023-10-08T00:16:58;97343.09;;;16.30;76.60
71889;BME280;59762;49.998;14.858;2023-10-08T00:19:25;97337.94;;;16.35;76.10
71889;BME280;59762;49.998;14.858;2023-10-08T00:21:51;97321.53;;;16.30;76.58
71889;BME280;59762;49.998;14.858;2023-10-08T00:24:18;97327.78;;;16.31;76.42
71889;BME280;59762;49.998;14.858;2023-10-08T00:26:53;97330.59;;;16.23;77.06
71889;BME280;59762;49.998;14.858;2023-10-08T00:29:20;97337.47;;;16.25;76.83
71889;BME280;59762;49.998;14.858;2023-10-08T00:31:48;97332.63;;;16.21;77.18
71889;BME280;59762;49.998;14.858;2023-10-08T00:34:16;97331.56;;;16.15;77.08
71889;BME280;59762;49.998;14.858;2023-10-08T00:36:45;97332.34;;;16.09;77.33
71889;BME280;59762;49.998;14.858;2023-10-08T00:39:12;97344.16;;;16.08;77.66
71889;BME280;59762;49.998;14.858;2023-10-08T00:41:52;97339.56;;;16.09;77.25
71889;BME280;59762;49.998;14.858;2023-10-08T00:44:24;97332.22;;;15.96;78.28
71889;BME280;59762;49.998;14.858;2023-10-08T00:46:58;97340.31;;;15.96;78.39
71889;BME280;59762;49.998;14.858;2023-10-08T00:49:30;97338.28;;;15.98;78.23
71889;BME280;59762;49.998;14.858;2023-10-08T00:52:12;97319.78;;;15.95;78.26
71889;BME280;59762;49.998;14.858;2023-10-08T00:54:39;97325.56;;;15.92;78.66
71889;BME280;59762;49.998;14.858;2023-10-08T00:57:25;97322.94;;;15.99;78.16
71889;BME280;59762;49.998;14.858;2023-10-08T00:59:51;97327.50;;;15.98;78.49
71889;BME280;59762;49.998;14.858;2023-10-08T01:02:28;97323.59;;;16.01;77.98
71889;BME280;59762;49.998;14.858;2023-10-08T01:05:08;97314.66;;;16.00;77.99
71889;BME280;59762;49.998;14.858;2023-10-08T01:07:36;97324.00;;;16.04;77.91
71889;BME280;59762;49.998;14.858;2023-10-08T01:10:05;97315.16;;;16.10;77.83
71889;BME280;59762;49.998;14.858;2023-10-08T01:12:36;97311.88;;;16.15;77.88
71889;BME280;59762;49.998;14.858;2023-10-08T01:15:10;97309.84;;;16.23;77.44
71889;BME280;59762;49.998;14.858;2023-10-08T01:17:44;97309.63;;;16.18;77.68
71889;BME280;59762;49.998;14.858;2023-10-08T01:20:20;97302.38;;;16.19;77.37
71889;BME280;59762;49.998;14.858;2023-10-08T01:22:58;97310.06;;;16.22;77.10
71889;BME280;59762;49.998;14.858;2023-10-08T01:25:25;97305.28;;;16.17;77.45
71889;BME280;59762;49.998;14.858;2023-10-08T01:27:56;97301.34;;;16.20;77.57
71889;BME280;59762;49.998;14.858;2023-10-08T01:30:26;97296.00;;;16.26;77.37
71889;BME280;59762;49.998;14.858;2023-10-08T01:32:52;97291.19;;;16.22;77.41
71889;BME280;59762;49.998;14.858;2023-10-08T01:35:17;97300.31;;;16.21;77.40
71889;BME280;59762;49.998;14.858;2023-10-08T01:37:50;97285.81;;;16.22;77.57
71889;BME280;59762;49.998;14.858;2023-10-08T01:40:19;97281.66;;;16.19;77.65
71889;BME280;59762;49.998;14.858;2023-10-08T01:42:44;97280.66;;;16.20;77.51
71889;BME280;59762;49.998;14.858;2023-10-08T01:45:11;97296.44;;;16.30;77.40
71889;BME280;59762;49.998;14.858;2023-10-08T01:47:45;97291.47;;;16.27;77.18
71889;BME280;59762;49.998;14.858;2023-10-08T01:50:11;97276.56;;;16.31;77.11
71889;BME280;59762;49.998;14.858;2023-10-08T01:52:51;97275.06;;;16.28;77.13
71889;BME280;59762;49.998;14.858;2023-10-08T01:55:17;97280.88;;;16.25;77.46
71889;BME280;59762;49.998;14.858;2023-10-08T01:57:45;97271.75;;;16.26;77.06
71889;BME280;59762;49.998;14.858;2023-10-08T02:00:11;97285.03;;;16.28;77.37
71889;BME280;59762;49.998;14.858;2023-10-08T02:02:37;97273.47;;;16.34;76.99
71889;BME280;59762;49.998;14.858;2023-10-08T02:05:06;97271.81;;;16.33;76.93
71889;BME280;59762;49.998;14.858;2023-10-08T02:07:32;97283.19;;;16.35;76.97
71889;BME280;59762;49.998;14.858;2023-10-08T02:09:59;97272.00;;;16.31;77.37
71889;BME280;59762;49.998;14.858;2023-10-08T02:12:25;97285.28;;;16.33;77.77
71889;BME280;59762;49.998;14.858;2023-10-08T02:14:50;97290.28;;;16.36;77.35
71889;BME280;59762;49.998;14.858;2023-10-08T02:17:16;97284.31;;;16.40;76.93
71889;BME280;59762;49.998;14.858;2023-10-08T02:19:42;97280.97;;;16.38;77.45
71889;BME280;59762;49.998;14.858;2023-10-08T02:22:08;97289.44;;;16.35;77.57
71889;BME280;59762;49.998;14.858;2023-10-08T02:24:37;97286.34;;;16.38;77.00
71889;BME280;59762;49.998;14.858;2023-10-08T02:27:03;97285.50;;;16.38;77.32
71889;BME280;59762;49.998;14.858;2023-10-08T02:29:30;97281.78;;;16.39;77.31
71889;BME280;59762;49.998;14.858;2023-10-08T02:31:57;97285.16;;;16.41;76.99
71889;BME280;59762;49.998;14.858;2023-10-08T02:34:23;97277.06;;;16.41;77.16
71889;BME280;59762;49.998;14.858;2023-10-08T02:36:48;97284.47;;;16.39;77.38
71889;BME280;59762;49.998;14.858;2023-10-08T02:39:14;97284.31;;;16.40;77.42
71889;BME280;59762;49.998;14.858;2023-10-08T02:41:47;97285.72;;;16.36;77.75
71889;BME280;59762;49.998;14.858;2023-10-08T02:44:14;97290.03;;;16.31;77.68
71889;BME280;59762;49.998;14.858;2023-10-08T02:46:41;97286.69;;;16.29;78.06
71889;BME280;59762;49.998;14.858;2023-10-08T02:49:10;97286.28;;;16.25;78.12
71889;BME280;59762;49.998;14.858;2023-10-08T02:51:39;97274.78;;;16.17;78.44
71889;BME280;59762;49.998;14.858;2023-10-08T02:54:07;97276.47;;;16.18;78.79
71889;BME280;59762;49.998;14.858;2023-10-08T02:56:35;97285.13;;;16.13;78.93
71889;BME280;59762;49.998;14.858;2023-10-08T02:59:00;97279.13;;;16.11;79.17
71889;BME280;59762;49.998;14.858;2023-10-08T03:01:28;97277.78;;;16.01;79.59
71889;BME280;59762;49.998;14.858;2023-10-08T03:03:59;97274.31;;;16.07;79.47
71889;BME280;59762;49.998;14.858;2023-10-08T03:06:29;97276.56;;;16.03;79.58
71889;BME280;59762;49.998;14.858;2023-10-08T03:08:57;97271.38;;;16.02;79.85
71889;BME280;59762;49.998;14.858;2023-10-08T03:11:29;97261.69;;;16.07;79.58
71889;BME280;59762;49.998;14.858;2023-10-08T03:13:57;97269.50;;;16.02;79.91
71889;BME280;59762;49.998;14.858;2023-10-08T03:16:22;97267.84;;;16.01;79.88
71889;BME280;59762;49.998;14.858;2023-10-08T03:18:54;97276.38;;;16.05;79.93
71889;BME280;59762;49.998;14.858;2023-10-08T03:21:22;97283.19;;;16.01;80.34
71889;BME280;59762;49.998;14.858;2023-10-08T03:24:08;97277.75;;;15.94;80.87
71889;BME280;59762;49.998;14.858;2023-10-08T03:26:59;97294.97;;;16.00;80.61
71889;BME280;59762;49.998;14.858;2023-10-08T03:29:41;97308.44;;;16.00;80.58
71889;BME280;59762;49.998;14.858;2023-10-08T03:32:11;97300.81;;;16.03;80.64
71889;BME280;59762;49.998;14.858;2023-10-08T03:34:48;97316.97;;;16.03;80.73
71889;BME280;59762;49.998;14.858;2023-10-08T03:37:17;97322.34;;;16.03;80.81
71889;BME280;59762;49.998;14.858;2023-10-08T03:39:49;97315.75;;;16.06;80.74
71889;BME280;59762;49.998;14.858;2023-10-08T03:42:51;97315.09;;;16.04;81.05
71889;BME280;59762;49.998;14.858;2023-10-08T03:45:21;97316.78;;;16.05;80.98
71889;BME280;59762;49.998;14.858;2023-10-08T03:48:06;97312.59;;;16.02;81.27
71889;BME280;59762;49.998;14.858;2023-10-08T03:50:33;97306.81;;;16.05;80.93
71889;BME280;59762;49.998;14.858;2023-10-08T03:53:07;97306.81;;;16.05;80.85
71889;BME280;59762;49.998;14.858;2023-10-08T03:55:39;97304.56;;;16.09;81.13
71889;BME280;59762;49.998;14.858;2023-10-08T03:58:09;97311.59;;;16.03;81.49
71889;BME280;59762;49.998;14.858;2023-10-08T04:00:53;97310.94;;;16.01;81.83
71889;BME280;59762;49.998;14.858;2023-10-08T04:03:34;97318.44;;;16.06;81.55
71889;BME280;59762;49.998;14.858;2023-10-08T04:06:21;97320.28;;;16.05;82.18
71889;BME280;59762;49.998;14.858;2023-10-08T04:08:48;97323.88;;;16.12;81.94
71889;BME280;59762;49.998;14.858;2023-10-08T04:11:38;97313.53;;;16.16;81.82
71889;BME280;59762;49.998;14.858;2023-10-08T04:14:13;97316.63;;;16.13;82.16
71889;BME280;59762;49.998;14.858;2023-10-08T04:16:42;97305.06;;;16.19;81.95
71889;BME280;59762;49.998;14.858;2023-10-08T04:19:09;97312.69;;;16.15;81.92
71889;BME280;59762;49.998;14.858;2023-10-08T04:21:35;97299.88;;;16.17;82.09
71889;BME280;59762;49.998;14.858;2023-10-08T04:24:02;97299.28;;;16.22;82.03
71889;BME280;59762;49.998;14.858;2023-10-08T04:26:34;97300.56;;;16.26;82.14
71889;BME280;59762;49.998;14.858;2023-10-08T04:29:01;97306.00;;;16.32;82.13
71889;BME280;59762;49.998;14.858;2023-10-08T04:31:30;97305.00;;;16.33;82.11
71889;BME280;59762;49.998;14.858;2023-10-08T04:34:09;97306.84;;;16.33;82.24
71889;BME280;59762;49.998;14.858;2023-10-08T04:36:44;97310.38;;;16.33;82.62
71889;BME280;59762;49.998;14.858;2023-10-08T04:39:20;97314.06;;;16.32;82.58
71889;BME280;59762;49.998;14.858;2023-10-08T04:41:52;97314.50;;;16.29;82.83
71889;BME280;59762;49.998;14.858;2023-10-08T04:44:31;97324.22;;;16.30;82.85
71889;BME280;59762;49.998;14.858;2023-10-08T04:46:57;97330.41;;;16.24;83.36
71889;BME280;59762;49.998;14.858;2023-10-08T04:49:30;97344.06;;;16.23;83.74
71889;BME280;59762;49.998;14.858;2023-10-08T04:52:03;97348.81;;;16.21;84.84
71889;BME280;59762;49.998;14.858;2023-10-08T04:54:34;97367.41;;;16.16;86.72
71889;BME280;59762;49.998;14.858;2023-10-08T04:57:06;97411.28;;;15.89;90.97
71889;BME280;59762;49.998;14.858;2023-10-08T04:59:33;97415.41;;;13.49;100.00
71889;BME280;59762;49.998;14.858;2023-10-08T05:04:44;97460.72;;;12.74;100.00
71889;BME280;59762;49.998;14.858;2023-10-08T05:07:28;97472.13;;;12.52;100.00
71889;BME280;59762;49.998;14.858;2023-10-08T05:10:13;97477.50;;;12.28;100.00
71889;BME280;59762;49.998;14.858;2023-10-08T05:12:54;97476.31;;;11.98;100.00
71889;BME280;59762;49.998;14.858;2023-10-08T05:15:29;97486.72;;;12.09;100.00
71889;BME280;59762;49.998;14.858;2023-10-08T05:18:13;97487.19;;;12.13;100.00
71889;BME280;59762;49.998;14.858;2023-10-08T05:20:52;97498.38;;;12.00;100.00
71889;BME280;59762;49.998;14.858;2023-10-08T05:23:18;97496.38;;;12.02;100.00
71889;BME280;59762;49.998;14.858;2023-10-08T05:25:52;97507.53;;;11.74;100.00
71889;BME280;59762;49.998;14.858;2023-10-08T05:28:24;97515.88;;;11.71;100.00
71889;BME280;59762;49.998;14.858;2023-10-08T05:30:51;97516.69;;;11.63;100.00
71889;BME280;59762;49.998;14.858;2023-10-08T05:33:40;97529.31;;;11.45;100.00
71889;BME280;59762;49.998;14.858;2023-10-08T05:36:24;97532.41;;;11.33;100.00
71889;BME280;59762;49.998;14.858;2023-10-08T05:39:08;97540.47;;;11.41;100.00
71889;BME280;59762;49.998;14.858;2023-10-08T05:41:52;97552.63;;;11.35;100.00
71889;BME280;59762;49.998;14.858;2023-10-08T05:44:30;97540.41;;;11.33;100.00
71889;BME280;59762;49.998;14.858;2023-10-08T05:47:08;97583.19;;;11.33;100.00
71889;BME280;59762;49.998;14.858;2023-10-08T05:49:40;97585.50;;;11.28;100.00
71889;BME280;59762;49.998;14.858;2023-10-08T05:52:19;97593.66;;;11.18;100.00
71889;BME280;59762;49.998;14.858;2023-10-08T05:54:51;97620.41;;;11.01;100.00
71889;BME280;59762;49.998;14.858;2023-10-08T05:57:41;97624.81;;;11.10;100.00
71889;BME280;59762;49.998;14.858;2023-10-08T06:00:12;97645.91;;;10.95;100.00
71889;BME280;59762;49.998;14.858;2023-10-08T06:02:42;97654.34;;;10.83;100.00
71889;BME280;59762;49.998;14.858;2023-10-08T06:05:11;97666.22;;;10.71;100.00
71889;BME280;59762;49.998;14.858;2023-10-08T06:07:44;97688.50;;;10.62;100.00
71889;BME280;59762;49.998;14.858;2023-10-08T06:10:29;97689.84;;;10.31;100.00
71889;BME280;59762;49.998;14.858;2023-10-08T06:13:05;97684.66;;;10.12;100.00
71889;BME280;59762;49.998;14.858;2023-10-08T06:15:44;97698.28;;;9.99;100.00
71889;BME280;59762;49.998;14.858;2023-10-08T06:18:31;97720.13;;;9.76;100.00
71889;BME280;59762;49.998;14.858;2023-10-08T06:21:00;97735.41;;;9.83;100.00
71889;BME280;59762;49.998;14.858;2023-10-08T06:23:27;97737.97;;;9.75;100.00
71889;BME280;59762;49.998;14.858;2023-10-08T06:25:55;97733.25;;;9.60;100.00
71889;BME280;59762;49.998;14.858;2023-10-08T06:28:32;97720.88;;;9.59;100.00
71889;BME280;59762;49.998;14.858;2023-10-08T06:31:01;97726.25;;;9.49;100.00
71889;BME280;59762;49.998;14.858;2023-10-08T06:33:28;97740.75;;;9.28;100.00
71889;BME280;59762;49.998;14.858;2023-10-08T06:36:02;97744.66;;;9.43;100.00
71889;BME280;59762;49.998;14.858;2023-10-08T06:38:33;97754.63;;;9.22;100.00
71889;BME280;59762;49.998;14.858;2023-10-08T06:40:59;97756.63;;;9.10;100.00
71889;BME280;59762;49.998;14.858;2023-10-08T06:43:28;97750.72;;;8.97;100.00
71889;BME280;59762;49.998;14.858;2023-10-08T06:45:54;97773.28;;;8.93;100.00
71889;BME280;59762;49.998;14.858;2023-10-08T06:48:24;97771.75;;;8.91;100.00
71889;BME280;59762;49.998;14.858;2023-10-08T06:50:52;97758.28;;;8.92;100.00
71889;BME280;59762;49.998;14.858;2023-10-08T06:53:23;97760.81;;;9.03;100.00
71889;BME280;59762;49.998;14.858;2023-10-08T06:55:49;97780.56;;;8.91;100.00
71889;BME280;59762;49.998;14.858;2023-10-08T06:58:25;97804.66;;;8.90;100.00
71889;BME280;59762;49.998;14.858;2023-10-08T07:00:52;97821.09;;;8.95;100.00
71889;BME280;59762;49.998;14.858;2023-10-08T07:03:18;97834.94;;;8.89;100.00
71889;BME280;59762;49.998;14.858;2023-10-08T07:05:49;97834.09;;;8.98;100.00
71889;BME280;59762;49.998;14.858;2023-10-08T07:08:27;97832.31;;;8.98;100.00
71889;BME280;59762;49.998;14.858;2023-10-08T07:10:54;97849.09;;;8.99;100.00
71889;BME280;59762;49.998;14.858;2023-10-08T07:13:23;97843.50;;;9.02;100.00
71889;BME280;59762;49.998;14.858;2023-10-08T07:15:50;97834.16;;;9.17;100.00
71889;BME280;59762;49.998;14.858;2023-10-08T07:18:17;97852.66;;;9.09;100.00
71889;BME280;59762;49.998;14.858;2023-10-08T07:20:53;97864.28;;;9.08;100.00
71889;BME280;59762;49.998;14.858;2023-10-08T07:23:26;97878.41;;;8.99;100.00
71889;BME280;59762;49.998;14.858;2023-10-08T07:26:01;97885.31;;;9.01;100.00
71889;BME280;59762;49.998;14.858;2023-10-08T07:28:37;97873.78;;;8.91;100.00
71889;BME280;59762;49.998;14.858;2023-10-08T07:31:15;97867.75;;;8.99;100.00
71889;BME280;59762;49.998;14.858;2023-10-08T07:33:46;97879.38;;;8.98;100.00
71889;BME280;59762;49.998;14.858;2023-10-08T07:36:13;97895.50;;;8.96;100.00
71889;BME280;59762;49.998;14.858;2023-10-08T07:38:43;97890.41;;;8.74;100.00
71889;BME280;59762;49.998;14.858;2023-10-08T07:41:10;97880.47;;;8.86;100.00
71889;BME280;59762;49.998;14.858;2023-10-08T07:43:39;97882.16;;;8.77;100.00
71889;BME280;59762;49.998;14.858;2023-10-08T07:46:04;97875.59;;;8.91;100.00
71889;BME280;59762;49.998;14.858;2023-10-08T07:48:31;97883.72;;;8.89;100.00
71889;BME280;59762;49.998;14.858;2023-10-08T07:50:57;97894.69;;;9.05;100.00
71889;BME280;59762;49.998;14.858;2023-10-08T07:53:24;97907.69;;;8.89;100.00
71889;BME280;59762;49.998;14.858;2023-10-08T07:55:51;97918.50;;;8.97;100.00
71889;BME280;59762;49.998;14.858;2023-10-08T07:58:17;97921.44;;;8.94;100.00
71889;BME280;59762;49.998;14.858;2023-10-08T08:00:44;97934.06;;;9.02;100.00
71889;BME280;59762;49.998;14.858;2023-10-08T08:03:22;97938.00;;;9.07;100.00
71889;BME280;59762;49.998;14.858;2023-10-08T08:05:48;97929.47;;;9.13;100.00
71889;BME280;59762;49.998;14.858;2023-10-08T08:08:18;97937.13;;;8.88;100.00
71889;BME280;59762;49.998;14.858;2023-10-08T08:10:44;97929.44;;;8.94;100.00
71889;BME280;59762;49.998;14.858;2023-10-08T08:13:11;97920.19;;;8.98;100.00
71889;BME280;59762;49.998;14.858;2023-10-08T08:15:37;97933.09;;;9.03;100.00
71889;BME280;59762;49.998;14.858;2023-10-08T08:18:08;97933.50;;;8.98;100.00
71889;BME280;59762;49.998;14.858;2023-10-08T08:20:44;97935.44;;;8.96;100.00
71889;BME280;59762;49.998;14.858;2023-10-08T08:23:09;97946.66;;;8.90;100.00
71889;BME280;59762;49.998;14.858;2023-10-08T08:25:37;97945.78;;;8.80;100.00
71889;BME280;59762;49.998;14.858;2023-10-08T08:28:12;97937.00;;;8.99;100.00
71889;BME280;59762;49.998;14.858;2023-10-08T08:30:45;97946.13;;;9.06;100.00
71889;BME280;59762;49.998;14.858;2023-10-08T08:33:13;97945.97;;;8.98;100.00
71889;BME280;59762;49.998;14.858;2023-10-08T08:35:42;97951.47;;;9.06;100.00
71889;BME280;59762;49.998;14.858;2023-10-08T08:38:08;97958.75;;;9.04;100.00
71889;BME280;59762;49.998;14.858;2023-10-08T08:40:34;97956.41;;;9.10;100.00
71889;BME280;59762;49.998;14.858;2023-10-08T08:43:00;97965.00;;;9.23;100.00
71889;BME280;59762;49.998;14.858;2023-10-08T08:45:31;97981.50;;;9.08;100.00
71889;BME280;59762;49.998;14.858;2023-10-08T08:48:00;97977.97;;;9.07;100.00
71889;BME280;59762;49.998;14.858;2023-10-08T08:50:25;97979.78;;;9.07;100.00
71889;BME280;59762;49.998;14.858;2023-10-08T08:52:53;97985.41;;;9.13;100.00
71889;BME280;59762;49.998;14.858;2023-10-08T08:55:19;97979.47;;;9.00;100.00
71889;BME280;59762;49.998;14.858;2023-10-08T08:57:50;97991.72;;;9.12;100.00
71889;BME280;59762;49.998;14.858;2023-10-08T09:00:19;97997.63;;;9.16;100.00
71889;BME280;59762;49.998;14.858;2023-10-08T09:02:47;98005.47;;;9.17;100.00
71889;BME280;59762;49.998;14.858;2023-10-08T09:05:13;98007.63;;;9.23;100.00
71889;BME280;59762;49.998;14.858;2023-10-08T09:07:53;98017.81;;;9.18;100.00
71889;BME280;59762;49.998;14.858;2023-10-08T09:10:20;98003.28;;;9.32;100.00
71889;BME280;59762;49.998;14.858;2023-10-08T09:12:51;98015.19;;;9.28;100.00
71889;BME280;59762;49.998;14.858;2023-10-08T09:15:17;98030.78;;;9.32;100.00
71889;BME280;59762;49.998;14.858;2023-10-08T09:17:44;98032.47;;;9.33;100.00
71889;BME280;59762;49.998;14.858;2023-10-08T09:20:09;98038.19;;;9.29;100.00
71889;BME280;59762;49.998;14.858;2023-10-08T09:22:38;98042.56;;;9.30;100.00
71889;BME280;59762;49.998;14.858;2023-10-08T09:25:03;98031.91;;;9.30;100.00
71889;BME280;59762;49.998;14.858;2023-10-08T09:27:33;98032.03;;;9.38;100.00
71889;BME280;59762;49.998;14.858;2023-10-08T09:29:59;98039.25;;;9.47;100.00
71889;BME280;59762;49.998;14.858;2023-10-08T09:32:33;98046.03;;;9.70;100.00
71889;BME280;59762;49.998;14.858;2023-10-08T09:35:00;98053.50;;;9.85;100.00
71889;BME280;59762;49.998;14.858;2023-10-08T09:37:27;98061.06;;;9.80;100.00
71889;BME280;59762;49.998;14.858;2023-10-08T09:39:54;98052.78;;;9.74;100.00
71889;BME280;59762;49.998;14.858;2023-10-08T09:42:21;98047.59;;;9.91;100.00
71889;BME280;59762;49.998;14.858;2023-10-08T09:44:50;98049.97;;;9.75;100.00
71889;BME280;59762;49.998;14.858;2023-10-08T09:47:21;98045.50;;;9.85;100.00
71889;BME280;59762;49.998;14.858;2023-10-08T09:50:00;98054.91;;;9.89;100.00
71889;BME280;59762;49.998;14.858;2023-10-08T09:52:36;98074.00;;;9.94;100.00
71889;BME280;59762;49.998;14.858;2023-10-08T09:55:08;98064.44;;;9.73;100.00
71889;BME280;59762;49.998;14.858;2023-10-08T09:57:36;98067.66;;;9.95;100.00
71889;BME280;59762;49.998;14.858;2023-10-08T10:00:05;98079.34;;;9.94;100.00
71889;BME280;59762;49.998;14.858;2023-10-08T10:02:41;98073.31;;;9.92;100.00
71889;BME280;59762;49.998;14.858;2023-10-08T10:05:12;98068.69;;;10.04;100.00
71889;BME280;59762;49.998;14.858;2023-10-08T10:07:38;98075.72;;;10.05;100.00
71889;BME280;59762;49.998;14.858;2023-10-08T10:10:28;98078.84;;;10.19;100.00
71889;BME280;59762;49.998;14.858;2023-10-08T10:13:03;98083.88;;;10.13;100.00
71889;BME280;59762;49.998;14.858;2023-10-08T10:15:29;98082.56;;;9.98;100.00
71889;BME280;59762;49.998;14.858;2023-10-08T10:18:13;98076.72;;;10.23;100.00
71889;BME280;59762;49.998;14.858;2023-10-08T10:20:52;98089.94;;;10.34;100.00
71889;BME280;59762;49.998;14.858;2023-10-08T10:23:42;98084.09;;;10.00;100.00
71889;BME280;59762;49.998;14.858;2023-10-08T10:26:29;98084.44;;;10.35;100.00
71889;BME280;59762;49.998;14.858;2023-10-08T10:29:25;98085.97;;;10.47;100.00
71889;BME280;59762;49.998;14.858;2023-10-08T10:31:53;98082.19;;;10.69;100.00
71889;BME280;59762;49.998;14.858;2023-10-08T10:34:24;98078.06;;;10.84;100.00
71889;BME280;59762;49.998;14.858;2023-10-08T10:36:54;98089.16;;;10.89;100.00
71889;BME280;59762;49.998;14.858;2023-10-08T10:39:34;98088.97;;;11.09;100.00
71889;BME280;59762;49.998;14.858;2023-10-08T10:42:05;98084.47;;;11.10;100.00
71889;BME280;59762;49.998;14.858;2023-10-08T10:44:33;98100.13;;;10.95;100.00
71889;BME280;59762;49.998;14.858;2023-10-08T10:47:02;98108.44;;;10.64;100.00
71889;BME280;59762;49.998;14.858;2023-10-08T10:49:45;98107.75;;;10.52;100.00
71889;BME280;59762;49.998;14.858;2023-10-08T10:52:28;98107.47;;;10.55;100.00
71889;BME280;59762;49.998;14.858;2023-10-08T10:55:14;98101.09;;;10.94;100.00
71889;BME280;59762;49.998;14.858;2023-10-08T10:57:43;98113.50;;;10.86;100.00
71889;BME280;59762;49.998;14.858;2023-10-08T11:00:11;98113.06;;;10.81;100.00
71889;BME280;59762;49.998;14.858;2023-10-08T11:02:56;98097.03;;;10.90;100.00
71889;BME280;59762;49.998;14.858;2023-10-08T11:05:48;98101.78;;;11.06;100.00
71889;BME280;59762;49.998;14.858;2023-10-08T11:08:17;98110.25;;;11.01;100.00
71889;BME280;59762;49.998;14.858;2023-10-08T11:10:49;98111.50;;;10.97;100.00
71889;BME280;59762;49.998;14.858;2023-10-08T11:13:20;98114.06;;;10.80;100.00
71889;BME280;59762;49.998;14.858;2023-10-08T11:15:55;98115.88;;;10.89;100.00
71889;BME280;59762;49.998;14.858;2023-10-08T11:18:25;98109.84;;;10.87;100.00
71889;BME280;59762;49.998;14.858;2023-10-08T11:21:05;98116.41;;;11.11;100.00
71889;BME280;59762;49.998;14.858;2023-10-08T11:23:46;98117.31;;;11.29;100.00
71889;BME280;59762;49.998;14.858;2023-10-08T11:26:19;98111.81;;;11.40;100.00
71889;BME280;59762;49.998;14.858;2023-10-08T11:28:45;98101.75;;;11.61;100.00
71889;BME280;59762;49.998;14.858;2023-10-08T11:31:14;98093.09;;;11.77;100.00
71889;BME280;59762;49.998;14.858;2023-10-08T11:33:44;98100.06;;;11.60;95.28
71889;BME280;59762;49.998;14.858;2023-10-08T11:36:20;98102.69;;;11.33;96.20
71889;BME280;59762;49.998;14.858;2023-10-08T11:38:57;98091.47;;;11.57;98.89
71889;BME280;59762;49.998;14.858;2023-10-08T11:41:33;98096.09;;;11.64;97.70
71889;BME280;59762;49.998;14.858;2023-10-08T11:44:15;98098.63;;;11.56;97.01
71889;BME280;59762;49.998;14.858;2023-10-08T11:46:45;98105.06;;;11.36;97.52
71889;BME280;59762;49.998;14.858;2023-10-08T11:49:17;98102.09;;;11.39;97.67
71889;BME280;59762;49.998;14.858;2023-10-08T11:51:51;98107.88;;;11.35;98.02
71889;BME280;59762;49.998;14.858;2023-10-08T11:54:21;98093.59;;;11.17;96.06
71889;BME280;59762;49.998;14.858;2023-10-08T11:56:48;98101.00;;;11.32;97.70
71889;BME280;59762;49.998;14.858;2023-10-08T11:59:14;98100.63;;;11.18;97.37
71889;BME280;59762;49.998;14.858;2023-10-08T12:01:42;98107.09;;;11.25;94.93
71889;BME280;59762;49.998;14.858;2023-10-08T12:04:08;98117.31;;;11.29;94.11
71889;BME280;59762;49.998;14.858;2023-10-08T12:06:42;98110.94;;;11.49;94.57
71889;BME280;59762;49.998;14.858;2023-10-08T12:09:18;98101.03;;;11.69;94.45
71889;BME280;59762;49.998;14.858;2023-10-08T12:11:50;98098.59;;;11.75;91.17
71889;BME280;59762;49.998;14.858;2023-10-08T12:14:16;98100.28;;;11.94;92.35
71889;BME280;59762;49.998;14.858;2023-10-08T12:16:42;98096.41;;;11.88;91.75
71889;BME280;59762;49.998;14.858;2023-10-08T12:19:11;98101.44;;;11.91;92.28
71889;BME280;59762;49.998;14.858;2023-10-08T12:21:44;98098.63;;;11.93;88.43
71889;BME280;59762;49.998;14.858;2023-10-08T12:24:13;98111.16;;;11.92;89.85
71889;BME280;59762;49.998;14.858;2023-10-08T12:26:40;98108.47;;;11.65;85.66
71889;BME280;59762;49.998;14.858;2023-10-08T12:29:14;98114.81;;;11.55;86.94
71889;BME280;59762;49.998;14.858;2023-10-08T12:31:40;98118.34;;;11.65;88.25
71889;BME280;59762;49.998;14.858;2023-10-08T12:34:06;98111.34;;;11.81;89.63
71889;BME280;59762;49.998;14.858;2023-10-08T12:36:37;98110.16;;;11.93;90.73
71889;BME280;59762;49.998;14.858;2023-10-08T12:39:03;98108.59;;;11.73;85.90
71889;BME280;59762;49.998;14.858;2023-10-08T12:41:35;98115.78;;;11.73;86.17
71889;BME280;59762;49.998;14.858;2023-10-08T12:44:04;98114.97;;;11.63;86.83
71889;BME280;59762;49.998;14.858;2023-10-08T12:46:33;98112.34;;;11.44;87.40
71889;BME280;59762;49.998;14.858;2023-10-08T12:48:59;98103.03;;;11.57;88.22
71889;BME280;59762;49.998;14.858;2023-10-08T12:51:27;98111.91;;;11.48;88.21
71889;BME280;59762;49.998;14.858;2023-10-08T12:53:58;98105.59;;;11.40;88.66
71889;BME280;59762;49.998;14.858;2023-10-08T12:56:33;98102.34;;;11.46;91.75
71889;BME280;59762;49.998;14.858;2023-10-08T12:59:04;98092.75;;;11.53;91.06
71889;BME280;59762;49.998;14.858;2023-10-08T13:01:35;98099.34;;;11.58;92.61
71889;BME280;59762;49.998;14.858;2023-10-08T13:04:02;98101.91;;;11.50;88.45
71889;BME280;59762;49.998;14.858;2023-10-08T13:06:34;98102.56;;;11.25;87.73
71889;BME280;59762;49.998;14.858;2023-10-08T13:09:03;98100.34;;;11.21;90.04
71889;BME280;59762;49.998;14.858;2023-10-08T13:11:34;98101.56;;;11.26;86.95
71889;BME280;59762;49.998;14.858;2023-10-08T13:14:00;98106.22;;;11.34;85.84